Flight Track Log - Related Links

Times and Time Zones

All times are in EDT time to prevent confusion due to time zone crossing. See the UAL758 flight status page for this flight to view local times or setup timezone preferences in your user account.

Time Position Orientation Groundspeed Altitude Reporting Facility
EDT Latitude Longitude Course Direction KTS MPH feet Rate Location/Type
Tue 12:40:24 PM 41.9372 -87.9042 176° South 151 174 2,100  Level Chicago Center
Tue 12:41:26 PM 41.8950 -87.9000 176° South 150 173 3,900 1,355 Climbing Chicago Center
Tue 12:42:28 PM 41.8331 -87.8808 167° South 206 237 4,900 2,081 Climbing Chicago Center
Tue 12:43:30 PM 41.7589 -87.8514 164° South 271 312 8,200 2,903 Climbing Chicago Center
Tue 12:44:32 PM 41.6822 -87.8239 165° South 283 326 10,900 2,565 Climbing Chicago Center
Tue 12:45:34 PM 41.6014 -87.7922 164° South 300 345 13,500 1,839 Climbing Chicago Center
Tue 12:46:36 PM 41.4914 -87.7519 165° South 343 395 14,700 1,536 Climbing Chicago Center
Tue 12:47:39 PM 41.3892 -87.7225 168° South 371 427 16,700 1,632 Climbing Chicago Center
Tue 12:48:41 PM 41.2822 -87.7258 181° South 379 436 18,100 1,548 Climbing Chicago Center
Tue 12:49:43 PM 41.1731 -87.7228 179° South 387 445 19,900 1,452 Climbing Chicago Center
Tue 12:50:45 PM 41.0603 -87.7050 173° South 402 463 21,100 1,403 Climbing Chicago Center
Tue 12:51:47 PM 40.9450 -87.6842 172° South 416 479 22,800 1,694 Climbing Chicago Center
Tue 12:52:49 PM 40.8075 -87.6533 170° South 420 483 24,600 1,452 Climbing Chicago Center
Tue 12:53:51 PM 40.6906 -87.6250 170° South 427 491 25,800 1,306 Climbing Chicago Center
Tue 12:54:53 PM 40.5708 -87.6000 171° South 436 502 27,300 1,306 Climbing Chicago Center
Tue 12:55:55 PM 40.4503 -87.5725 170° South 441 507 28,500 1,016 Climbing Chicago Center
Tue 12:56:57 PM 40.3278 -87.5467 171° South 447 514 29,400 968 Climbing Chicago Center
Tue 12:57:59 PM 40.1767 -87.5125 170° South 459 528 30,500 1,248 Climbing Chicago Center
Tue 12:58:38 PM 40.0933 -87.4964 172° South 461 531 31,500 1,485 Climbing Indianapolis Center
Tue 12:59:40 PM 39.9686 -87.4850 176° South 454 522 33,000 1,161 Climbing Indianapolis Center
Tue 01:00:42 PM 39.8444 -87.4861 180° South 450 518 33,900 919 Climbing Indianapolis Center
Tue 01:01:44 PM 39.7197 -87.4883 181° South 450 518 34,900 532 Climbing Indianapolis Center
Tue 01:02:46 PM 39.5953 -87.4933 182° South 450 518 35,000 48 Climbing Indianapolis Center
Tue 01:03:48 PM 39.4753 -87.4739 173° South 444 511 35,000  Level Indianapolis Center
Tue 01:04:50 PM 39.3322 -87.4392 169° South 439 505 35,000  Level Indianapolis Center
Tue 01:05:52 PM 39.2114 -87.4089 169° South 443 510 35,000  Level Indianapolis Center
Tue 01:06:54 PM 39.0919 -87.3797 169° South 439 505 35,000  Level Indianapolis Center
Tue 01:07:56 PM 38.9722 -87.3511 169° South 439 505 35,000  Level Indianapolis Center
Tue 01:08:58 PM 38.8514 -87.3208 169° South 443 510 35,000  Level Indianapolis Center
Tue 01:09:59 PM 38.7081 -87.2858 169° South 441 507 35,000  Level Indianapolis Center
Tue 01:11:01 PM 38.5869 -87.2567 169° South 445 512 35,000  Level Indianapolis Center
Tue 01:12:03 PM 38.4656 -87.2269 169° South 445 512 35,000  Level Indianapolis Center
Tue 01:13:05 PM 38.3442 -87.1983 170° South 445 512 35,000  Level Indianapolis Center
Tue 01:14:07 PM 38.2242 -87.1697 169° South 441 507 35,000  Level Indianapolis Center
Tue 01:15:09 PM 38.1028 -87.1411 169° South 443 510 35,000  Level Indianapolis Center
Tue 01:16:11 PM 37.9625 -87.1108 170° South 445 512 35,000  Level Indianapolis Center
Tue 01:17:13 PM 37.8394 -87.0806 169° South 446 513 35,000  Level Indianapolis Center
Tue 01:18:15 PM 37.7156 -87.0533 170° South 446 513 35,000  Level Indianapolis Center
Tue 01:19:17 PM 37.5947 -87.0208 168° South 442 509 35,000  Level Indianapolis Center
Tue 01:20:19 PM 37.4711 -86.9928 170° South 445 512 35,000  Level Indianapolis Center
Tue 01:21:21 PM 37.3283 -86.9592 169° South 445 512 35,000  Level Indianapolis Center
Tue 01:22:22 PM 37.2069 -86.9300 169° South 443 510 35,000  Level Indianapolis Center
Tue 01:23:24 PM 37.0853 -86.9028 170° South 442 509 35,000  Level Indianapolis Center
Tue 01:24:26 PM 36.9653 -86.8750 170° South 436 502 35,000  Level Indianapolis Center
Tue 01:25:28 PM 36.8453 -86.8475 170° South 434 499 35,000  Level Indianapolis Center
Tue 01:26:30 PM 36.7247 -86.8183 169° South 436 502 35,000  Level Indianapolis Center
Tue 01:27:32 PM 36.6039 -86.7903 169° South 436 502 35,000  Level Indianapolis Center
Tue 01:28:34 PM 36.4836 -86.7606 169° South 434 499 35,000  Level Indianapolis Center
Tue 01:29:36 PM 36.3564 -86.7325 170° South 449 517 35,000  Level Indianapolis Center
Tue 01:30:37 PM 36.2317 -86.7056 170° South 442 509 35,000  Level Indianapolis Center
Tue 01:31:38 PM 36.1058 -86.6706 167° South 444 511 35,000  Level Memphis Center
Tue 01:32:38 PM 35.9978 -86.6164 158° South 433 498 35,000  Level Memphis Center
Tue 01:33:38 PM 35.8836 -86.5600 158° South 431 496 35,000  Level Memphis Center
Tue 01:34:38 PM 35.7733 -86.5064 158° South 431 496 35,000  Level Memphis Center
Tue 01:36:42 PM 35.5436 -86.3919 158° South 436 502 35,000  Level Atlanta Center
Tue 01:37:42 PM 35.4297 -86.3378 159° South 436 502 35,000  Level Atlanta Center
Tue 01:38:42 PM 35.3181 -86.2839 159° South 436 502 35,000  Level Atlanta Center
Tue 01:39:42 PM 35.2064 -86.2300 158° South 436 502 35,000  Level Atlanta Center
Tue 01:40:42 PM 35.0989 -86.1711 156° South 429 494 35,000  Level Atlanta Center
Tue 01:41:42 PM 34.9850 -86.1228 161° South 429 494 35,000  Level Atlanta Center
Tue 01:42:42 PM 34.8733 -86.0617 156° South 436 502 35,000  Level Atlanta Center
Tue 01:43:42 PM 34.7594 -86.0058 158° South 436 502 35,000  Level Atlanta Center
Tue 01:44:42 PM 34.6456 -85.9525 159° South 436 502 35,000  Level Atlanta Center
Tue 01:45:42 PM 34.5294 -85.8969 158° South 441 507 35,000  Level Atlanta Center
Tue 01:46:42 PM 34.4156 -85.8417 158° South 441 507 35,000  Level Atlanta Center
Tue 01:47:42 PM 34.3014 -85.7939 161° South 446 513 35,000  Level Atlanta Center
Tue 01:48:42 PM 34.1894 -85.7414 159° South 446 513 35,000  Level Atlanta Center
Tue 01:49:42 PM 34.0733 -85.6864 159° South 446 513 35,000  Level Atlanta Center
Tue 01:50:42 PM 33.9592 -85.6317 158° South 451 519 35,000  Level Atlanta Center
Tue 01:51:42 PM 33.8453 -85.5794 159° South 446 513 35,000  Level Atlanta Center
Tue 01:52:42 PM 33.7311 -85.5250 158° South 446 513 35,000  Level Atlanta Center
Tue 01:53:42 PM 33.6147 -85.4731 160° South 446 513 35,000  Level Atlanta Center
Tue 01:54:42 PM 33.5006 -85.4189 158° South 446 513 35,000  Level Atlanta Center
Tue 01:55:42 PM 33.3822 -85.3647 159° South 454 522 35,000  Level Atlanta Center
Tue 01:56:42 PM 33.2700 -85.3133 159° South 446 513 35,000  Level Atlanta Center
Tue 01:57:42 PM 33.1453 -85.2544 158° South 446 513 35,000  Level Atlanta Center
Tue 01:58:42 PM 33.0436 -85.2036 157° South 446 513 35,000  Level Atlanta Center
Tue 01:59:42 PM 32.9231 -85.1575 162° South 441 507 35,000  Level Atlanta Center
Tue 02:00:42 PM 32.7897 -85.1236 168° South 446 513 35,000  Level Atlanta Center
Tue 02:01:42 PM 32.6836 -85.0778 160° South 454 522 35,000  Level Atlanta Center
Tue 02:02:42 PM 32.5711 -85.0394 164° South 447 514 35,000  Level Atlanta Center
Tue 02:03:42 PM 32.4464 -84.9989 165° South 453 521 35,000  Level Atlanta Center
Tue 02:04:42 PM 32.3275 -84.9581 164° South 453 521 35,000  Level Atlanta Center
Tue 02:05:42 PM 32.2089 -84.9250 167° South 448 516 35,000  Level Atlanta Center
Tue 02:06:42 PM 32.0922 -84.8847 164° South 448 516 35,000  Level Atlanta Center
Tue 02:08:13 PM 31.8928 -84.8331 168° South 454 522 35,000  Level Jacksonville Center
Tue 02:09:13 PM 31.7825 -84.8183 174° South 449 517 35,000  Level Jacksonville Center
Tue 02:10:13 PM 31.6617 -84.7939 170° South 444 511 35,000  Level Jacksonville Center
Tue 02:11:13 PM 31.5367 -84.7694 171° South 449 517 35,000  Level Jacksonville Center
Tue 02:12:13 PM 31.4139 -84.7450 170° South 449 517 35,000  Level Jacksonville Center
Tue 02:13:13 PM 31.2931 -84.7208 170° South 449 517 35,000  Level Jacksonville Center
Tue 02:14:13 PM 31.1703 -84.6989 171° South 449 517 35,000  Level Jacksonville Center
Tue 02:15:13 PM 31.0453 -84.6747 171° South 449 517 35,000  Level Jacksonville Center
Tue 02:16:13 PM 30.9314 -84.6217 158° South 444 511 35,000 -50 Level Jacksonville Center
Tue 02:17:13 PM 30.8133 -84.5447 151° Southeast 444 511 34,900  Descending Jacksonville Center
Tue 02:18:13 PM 30.7158 -84.4803 150° Southeast 444 511 35,000 50 Climbing Jacksonville Center
Tue 02:19:13 PM 30.6042 -84.4083 151° Southeast 449 517 35,000  Level Jacksonville Center
Tue 02:20:13 PM 30.4964 -84.3367 150° Southeast 454 522 35,000  Level Jacksonville Center
Tue 02:21:13 PM 30.3886 -84.2653 150° Southeast 454 522 35,000 -50 Level Jacksonville Center
Tue 02:22:13 PM 30.2786 -84.1914 150° Southeast 454 522 34,900 -50 Descending Jacksonville Center
Tue 02:23:13 PM 30.1625 -84.1178 151° Southeast 446 513 34,900 50 Level Jacksonville Center
Tue 02:24:13 PM 30.0608 -84.0542 152° Southeast 452 520 35,000 50 Climbing Jacksonville Center
Tue 02:25:13 PM 29.9528 -83.9808 150° Southeast 457 526 35,000 -50 Level Jacksonville Center
Tue 02:26:13 PM 29.8428 -83.9103 151° Southeast 451 519 34,900 -50 Descending Jacksonville Center
Tue 02:27:13 PM 29.7347 -83.8422 151° Southeast 451 519 34,900 -50 Level Jacksonville Center
Tue 02:28:13 PM 29.6247 -83.7717 151° Southeast 456 525 34,800 -750 Descending Jacksonville Center
Tue 02:29:13 PM 29.5125 -83.6992 151° Southeast 456 525 33,400 -2,100 Descending Jacksonville Center
Tue 02:30:13 PM 29.4000 -83.6267 151° Southeast 456 525 30,600 -2,550 Descending Jacksonville Center
Tue 02:31:13 PM 29.2878 -83.5544 151° Southeast 456 525 28,300 -2,200 Descending Jacksonville Center
Tue 02:32:13 PM 29.1794 -83.4847 151° Southeast 451 519 26,200 -1,850 Descending Jacksonville Center
Tue 02:33:13 PM 29.0733 -83.4178 151° Southeast 446 513 24,600 -1,850 Descending Jacksonville Center
Tue 02:34:13 PM 28.9650 -83.3506 151° Southeast 446 513 22,500 -1,950 Descending Jacksonville Center
Tue 02:35:13 PM 28.8672 -83.2861 150° Southeast 434 499 20,700 -1,700 Descending Jacksonville Center
Tue 02:36:13 PM 28.7714 -83.2267 151° Southeast 407 468 19,100 -1,500 Descending Jacksonville Center
Tue 02:37:13 PM 28.6797 -83.1669 150° Southeast 393 452 17,700 -1,615 Descending Jacksonville Center
Tue 02:37:57 PM 28.6167 -83.1167 145° Southeast 374 430 16,300 -1,673 Descending Tampa TRACON
Tue 02:38:57 PM 28.5167 -83.0667 156° South 365 420 14,800 -1,300 Descending Tampa TRACON
Tue 02:39:57 PM 28.4333 -83.0167 152° Southeast 337 388 13,700 -1,053 Descending Tampa TRACON
Tue 02:40:51 PM 28.3667 -82.9667 147° Southeast 308 354 12,800 -1,263 Descending Tampa TRACON
Tue 02:41:51 PM 28.3000 -82.9333 156° South 292 336 11,300 -1,474 Descending Tampa TRACON
Tue 02:42:45 PM 28.2667 -82.8667 120° Southeast 265 305 10,000 -1,900 Descending Tampa TRACON
Tue 02:43:51 PM 28.2833 -82.7667 79° East 259 298 7,500 -2,238 Descending Tampa TRACON
Tue 02:44:51 PM 28.2833 -82.6833 90° East 260 299 5,300 -2,095 Descending Tampa TRACON
Tue 02:45:57 PM 28.2500 -82.6000 114° Southeast 268 308 3,100 -1,150 Descending Tampa TRACON
Tue 02:46:51 PM 28.2000 -82.5667 150° Southeast 261 300 3,000 -111 Descending Tampa TRACON

Login

Don't have an account? Register now (free) for customized features, flight alerts, and more!